Time;durP1;ratioP1;P1;durP2;ratioP2;P2;SDS_P1;SDS_P2;PMS_P1;PMS_P2;Temp;Humidity;BMP_temperature;BMP_pressure;BME280_temperature;BME280_humidity;BME280_pressure;Samples;Min_cycle;Max_cycle;Signal;HPM_P1;HPM_P2
2021/04/01 04:52:10;;;;;;;118.50;61.40;;;;;;;2.75;100.00;101563.48;1819358;77;21174;-87
2021/04/01 04:58:15;;;;;;;98.22;55.10;;;;;;;3.89;100.00;101553.27;1807405;78;21116;-87
2021/04/01 05:00:54;;;;;;;112.32;59.45;;;;;;;4.10;100.00;101555.17;1799417;78;21216;-87
2021/04/01 05:14:12;;;;;;;97.80;55.12;;;;;;;4.86;100.00;101537.09;1740287;80;21568;-88
2021/04/01 05:24:52;;;;;;;81.37;50.55;;;;;;;5.51;100.00;101536.39;1777861;78;21534;-91
2021/04/01 05:31:12;;;;;;;75.05;47.43;;;;;;;5.91;100.00;101520.58;1786090;78;21149;-91
2021/04/01 05:42:16;;;;;;;62.70;45.63;;;;;;;6.52;100.00;101525.41;1793957;79;21886;-89
2021/04/01 05:48:08;;;;;;;61.93;48.17;;;;;;;6.90;100.00;101516.39;1837042;77;28541;-89
2021/04/01 06:08:13;;;;;;;;;;;;;;;7.77;100.00;101495.48;1823669;78;21419;-89
2021/04/01 06:11:10;;;;;;;46.85;36.00;;;;;;;7.94;100.00;101491.22;1818948;78;21365;-89
2021/04/01 06:14:02;;;;;;;45.08;34.60;;;;;;;8.05;100.00;101494.13;1760718;80;21159;-89
2021/04/01 06:16:20;;;;;;;;;;;;;;;8.15;100.00;101492.72;1814319;78;21165;-90
2021/04/01 06:18:54;;;;;;;47.98;36.05;;;;;;;8.28;100.00;101494.70;1793342;80;20240;-91
2021/04/01 06:29:41;;;;;;;46.37;34.00;;;;;;;8.57;100.00;101483.28;1793825;78;21147;-89
2021/04/01 06:32:23;;;;;;;45.03;33.75;;;;;;;8.66;100.00;101485.39;1800047;78;21176;-89
2021/04/01 06:39:21;;;;;;;44.55;33.38;;;;;;;8.81;100.00;101479.38;1807283;78;21139;-89
2021/04/01 06:42:20;;;;;;;42.75;33.40;;;;;;;8.96;100.00;101480.76;1763475;80;21366;-89
2021/04/01 06:44:59;;;;;;;45.10;33.38;;;;;;;9.05;100.00;101474.24;1808280;78;21134;-90
2021/04/01 06:47:30;;;;;;;36.35;30.23;;;;;;;9.13;100.00;101476.78;1781776;79;21155;-90
2021/04/01 06:50:16;;;;;;;36.95;28.17;;;;;;;9.23;100.00;101476.27;1767793;81;21139;-90
2021/04/01 07:00:32;;;;;;;35.15;27.60;;;;;;;9.81;100.00;101477.79;1763872;81;21126;-88
2021/04/01 07:06:54;;;;;;;38.25;29.52;;;;;;;10.05;100.00;101471.59;1852914;77;22252;-88
2021/04/01 07:09:56;;;;;;;39.20;29.72;;;;;;;10.14;100.00;101474.10;1846897;77;21093;-89
2021/04/01 07:12:17;;;;;;;41.28;31.48;;;;;;;10.26;100.00;101470.30;1822934;77;21383;-89
2021/04/01 07:14:49;;;;;;;40.83;31.97;;;;;;;10.34;100.00;101462.05;1823165;77;21084;-89
2021/04/01 07:17:57;;;;;;;41.85;31.15;;;;;;;10.45;100.00;101459.30;1843430;77;21067;-89
2021/04/01 07:48:44;;;;;;;32.88;24.47;;;;;;;11.32;100.00;101425.56;1782087;79;21135;-88
2021/04/01 07:54:13;;;;;;;31.25;25.40;;;;;;;11.47;100.00;101411.14;1811675;78;21147;-89
2021/04/01 08:02:50;;;;;;;32.55;25.60;;;;;;;11.83;100.00;101402.63;1810687;79;21453;-87
2021/04/01 08:05:34;;;;;;;33.33;26.13;;;;;;;11.96;100.00;101400.02;1799447;79;21128;-88
2021/04/01 08:20:21;;;;;;;32.70;26.45;;;;;;;12.51;100.00;101378.84;1790050;79;21337;-88
2021/04/01 08:35:03;;;;;;;35.08;27.40;;;;;;;12.85;100.00;101361.20;1809101;79;21099;-88
2021/04/01 08:37:34;;;;;;;35.70;26.15;;;;;;;12.93;100.00;101358.40;1806772;79;21222;-87
2021/04/01 08:40:10;;;;;;;36.15;26.25;;;;;;;13.04;93.31;101354.99;1775330;80;21515;-87
2021/04/01 08:43:35;;;;;;;36.25;27.05;;;;;;;13.06;92.75;101356.17;1778782;79;21124;-88
2021/04/01 08:49:54;;;;;;;37.17;27.82;;;;;;;13.25;91.18;101351.26;1784364;79;21136;-89
2021/04/01 08:52:50;;;;;;;40.20;31.20;;;;;;;13.40;90.19;101342.74;1789053;79;21394;-89
2021/04/01 08:55:30;;;;;;;25.85;20.55;;;;;;;13.52;86.27;101343.59;1722662;81;21163;-88
2021/04/01 08:58:34;;;;;;;29.57;21.90;;;;;;;13.68;83.99;101335.88;1795777;79;21159;-89
2021/04/01 09:04:25;;;;;;;28.55;22.52;;;;;;;14.17;76.59;101330.74;1885729;75;22237;-88
2021/04/01 09:07:05;;;;;;;25.15;21.27;;;;;;;14.25;72.85;101324.06;1849485;77;21101;-89
2021/04/01 09:09:40;;;;;;;25.68;21.07;;;;;;;14.32;68.50;101317.38;1860542;76;21354;-89
2021/04/01 09:15:18;;;;;;;33.95;28.10;;;;;;;14.49;71.79;101303.76;1849153;77;21133;-89
2021/04/01 09:17:42;;;;;;;34.78;28.77;;;;;;;14.59;74.19;101306.45;1853142;77;21147;-89
2021/04/01 09:20:22;;;;;;;40.35;31.95;;;;;;;14.70;74.08;101299.08;1860033;77;21145;-88
2021/04/01 09:22:58;;;;;;;39.20;30.95;;;;;;;14.75;72.51;101297.37;1859975;77;21414;-89
2021/04/01 09:25:40;;;;;;;44.98;33.45;;;;;;;14.65;69.63;101301.20;1855352;77;21164;-88
2021/04/01 09:28:38;;;;;;;58.00;39.42;;;;;;;14.46;70.90;101283.03;1860060;77;21541;-90
2021/04/01 09:31:08;;;;;;;35.10;27.22;;;;;;;14.37;73.02;101285.11;1849794;77;21608;-89
2021/04/01 09:33:41;;;;;;;32.00;24.70;;;;;;;14.50;74.19;101281.02;1813657;77;21164;-89
2021/04/01 09:36:20;;;;;;;27.60;22.90;;;;;;;14.69;70.80;101272.52;1827256;77;21545;-88
2021/04/01 09:38:56;;;;;;;30.45;21.77;;;;;;;14.86;68.66;101275.53;1829766;77;21265;-89
2021/04/01 09:41:36;;;;;;;42.10;28.67;;;;;;;15.04;66.95;101271.85;1826308;78;21059;-89
2021/04/01 09:44:06;;;;;;;26.52;21.48;;;;;;;15.16;60.76;101268.67;1826258;78;21107;-90
2021/04/01 09:46:57;;;;;;;25.68;20.05;;;;;;;15.11;58.46;101268.56;1830801;77;21167;-90
2021/04/01 09:49:31;;;;;;;29.18;20.70;;;;;;;15.10;61.33;101267.39;1846226;77;21458;-90
2021/04/01 09:52:02;;;;;;;27.15;20.97;;;;;;;15.25;61.40;101258.22;1851735;77;21153;-90
2021/04/01 09:54:39;;;;;;;25.37;18.65;;;;;;;15.39;57.99;101255.75;1837758;76;21158;-87
2021/04/01 09:57:10;;;;;;;23.02;17.07;;;;;;;15.48;56.16;101254.61;1850495;77;21221;-86
2021/04/01 09:59:52;;;;;;;28.00;20.45;;;;;;;15.45;53.62;101249.97;1848488;76;21781;-87
2021/04/01 10:02:30;;;;;;;25.95;18.35;;;;;;;15.39;57.15;101243.09;1855206;76;21354;-88
2021/04/01 10:05:05;;;;;;;26.27;17.32;;;;;;;15.47;57.62;101236.70;1845440;76;21211;-88
2021/04/01 10:07:45;;;;;;;23.65;17.48;;;;;;;15.62;55.32;101234.06;1856738;77;21143;-88
2021/04/01 10:10:13;;;;;;;23.67;15.83;;;;;;;15.75;53.41;101227.26;1855936;77;21527;-88
2021/04/01 10:12:43;;;;;;;20.95;15.70;;;;;;;15.89;53.07;101222.64;1770614;78;21135;-88
2021/04/01 10:15:14;;;;;;;;;;;;;;;16.05;51.19;101216.37;1816903;78;21286;-88
2021/04/01 10:21:18;;;;;;;21.30;14.93;;;;;;;16.34;53.02;101214.23;1789544;80;21120;-88
2021/04/01 10:23:55;;;;;;;35.20;22.55;;;;;;;16.47;48.96;101209.17;1759206;80;21115;-88
2021/04/01 10:26:32;;;;;;;32.88;23.07;;;;;;;16.40;49.76;101201.03;1808494;78;21160;-88
2021/04/01 10:29:19;;;;;;;19.25;14.60;;;;;;;16.31;49.70;101196.60;1818033;77;21377;-88
2021/04/01 10:32:22;;;;;;;17.82;14.80;;;;;;;16.30;49.58;101193.16;1756949;80;21123;-88
2021/04/01 10:34:54;;;;;;;22.02;17.45;;;;;;;16.39;49.87;101196.73;1806702;78;21144;-89
2021/04/01 10:37:25;;;;;;;28.02;18.87;;;;;;;16.40;49.64;101191.33;1775024;80;21135;-88
2021/04/01 10:44:20;;;;;;;26.75;18.35;;;;;;;16.12;50.98;101178.55;1825102;78;21153;-90
2021/04/01 10:50:58;;;;;;;22.77;15.90;;;;;;;16.01;51.31;101171.64;1806408;78;21143;-90
2021/04/01 10:57:41;;;;;;;60.05;30.97;;;;;;;16.15;46.43;101164.30;1782285;78;21210;-90
2021/04/01 11:00:59;;;;;;;61.92;31.12;;;;;;;15.84;48.91;101159.17;1806774;78;22186;-89
2021/04/01 11:04:06;;;;;;;20.95;14.53;;;;;;;15.81;49.39;101158.13;1787790;80;21164;-89
2021/04/01 11:06:41;;;;;;;20.25;15.43;;;;;;;15.80;48.34;101149.40;1758978;80;21149;-89
2021/04/01 11:09:11;;;;;;;23.95;16.52;;;;;;;15.78;50.67;101146.92;1789646;80;21156;-89
2021/04/01 11:12:16;;;;;;;20.52;14.25;;;;;;;15.68;48.51;101147.38;1747848;82;21139;-89
2021/04/01 11:14:53;;;;;;;18.25;13.10;;;;;;;15.54;49.11;101147.28;1739024;81;21222;-89
2021/04/01 11:17:55;;;;;;;20.17;13.75;;;;;;;15.46;47.55;101140.59;1779721;79;21604;-89
2021/04/01 11:20:24;;;;;;;;;;;;;;;15.46;46.86;101133.53;1787632;79;21192;-88
2021/04/01 11:23:11;;;;;;;40.58;23.32;;;;;;;15.51;49.31;101138.37;1786956;78;20649;-88
2021/04/01 11:25:52;;;;;;;22.95;15.88;;;;;;;15.60;49.62;101130.16;1773824;79;21597;-88
2021/04/01 11:28:49;;;;;;;25.00;14.65;;;;;;;15.77;48.60;101125.56;1788483;78;22647;-89
2021/04/01 11:31:29;;;;;;;18.05;12.68;;;;;;;15.93;47.95;101122.91;1789565;79;21625;-88
2021/04/01 11:34:00;;;;;;;29.15;16.62;;;;;;;16.04;46.90;101120.63;1782035;78;21885;-88
2021/04/01 11:36:59;;;;;;;18.65;12.70;;;;;;;16.11;46.33;101122.22;1789170;79;21173;-89
2021/04/01 11:39:41;;;;;;;20.48;14.30;;;;;;;16.13;45.21;101109.78;1781459;79;21545;-89
2021/04/01 11:42:16;;;;;;;34.73;19.12;;;;;;;16.09;46.85;101108.73;1774534;78;22371;-88
2021/04/01 11:44:46;;;;;;;28.27;18.00;;;;;;;16.01;48.27;101103.84;1791916;79;21585;-89
2021/04/01 11:47:23;;;;;;;27.60;16.75;;;;;;;15.95;48.37;101096.03;1800905;79;21220;-91
2021/04/01 11:49:53;;;;;;;30.45;18.17;;;;;;;15.93;46.97;101089.61;1793839;79;21161;-90
2021/04/01 11:52:24;;;;;;;72.32;37.33;;;;;;;15.93;46.94;101085.67;1783999;79;21166;-90
2021/04/01 11:54:53;;;;;;;61.75;32.45;;;;;;;15.93;46.94;101081.73;1769974;81;21371;-90
2021/04/01 11:57:32;;;;;;;76.20;38.65;;;;;;;15.93;46.74;101076.95;1769382;80;21189;-90
2021/04/01 12:00:16;;;;;;;29.10;18.57;;;;;;;15.91;47.26;101077.56;1787739;79;21569;-91
2021/04/01 12:03:00;;;;;;;46.63;26.07;;;;;;;15.88;46.69;101069.48;1754047;79;21233;-90
2021/04/01 12:05:37;;;;;;;19.20;13.62;;;;;;;15.88;44.89;101060.79;1779889;79;21254;-90
2021/04/01 12:08:03;;;;;;;52.98;27.37;;;;;;;15.80;44.73;101064.56;1822621;77;22257;-90
2021/04/01 12:10:34;;;;;;;79.00;38.63;;;;;;;15.71;45.41;101055.23;1818993;77;21148;-90
2021/04/01 12:13:02;;;;;;;29.10;15.60;;;;;;;15.71;44.23;101058.33;1829914;78;21161;-90
2021/04/01 12:15:40;;;;;;;59.03;29.27;;;;;;;15.69;42.95;101051.09;1807337;78;21153;-89
2021/04/01 12:18:10;;;;;;;57.95;28.20;;;;;;;15.67;44.03;101050.39;1830025;77;21149;-91
2021/04/01 12:20:39;;;;;;;34.88;19.35;;;;;;;15.70;44.78;101050.13;1830033;78;21704;-90
2021/04/01 12:23:21;;;;;;;33.90;15.68;;;;;;;15.74;43.80;101042.31;1829374;77;21169;-90
2021/04/01 12:26:02;;;;;;;18.12;12.53;;;;;;;15.76;43.33;101039.07;1804999;78;21140;-90
2021/04/01 12:28:32;;;;;;;23.62;14.25;;;;;;;15.76;44.17;101033.32;1804201;78;21620;-90
2021/04/01 12:31:00;;;;;;;23.85;14.75;;;;;;;15.75;45.25;101039.53;1742549;82;21180;-90
2021/04/01 12:33:36;;;;;;;26.50;14.93;;;;;;;15.75;42.61;101034.28;1764577;79;22296;-91
2021/04/01 12:36:09;;;;;;;36.25;19.17;;;;;;;15.73;43.96;101028.84;1763099;79;21156;-91
2021/04/01 12:38:42;;;;;;;28.12;14.20;;;;;;;15.70;44.04;101023.38;1824791;77;21115;-91
2021/04/01 12:41:24;;;;;;;20.10;13.78;;;;;;;15.73;43.90;101015.70;1785596;78;21188;-91
2021/04/01 12:43:53;;;;;;;18.10;13.03;;;;;;;15.74;43.51;101014.75;1810710;77;21141;-91
2021/04/01 12:46:36;;;;;;;15.95;11.53;;;;;;;15.74;44.47;101011.62;1826209;77;22060;-90
2021/04/01 12:49:10;;;;;;;23.15;15.00;;;;;;;15.73;44.23;101008.67;1777610;79;21141;-90
2021/04/01 12:51:54;;;;;;;18.85;12.90;;;;;;;15.68;44.44;101003.00;1821762;77;22053;-91
2021/04/01 12:54:27;;;;;;;34.92;20.23;;;;;;;15.68;44.13;101001.69;1805429;77;21184;-91
2021/04/01 12:56:58;;;;;;;18.27;12.28;;;;;;;15.66;43.81;100997.55;1812401;77;21613;-90
2021/04/01 12:59:38;;;;;;;18.25;11.80;;;;;;;15.63;42.57;100992.09;1799728;78;21353;-90
2021/04/01 13:04:59;;;;;;;25.02;16.30;;;;;;;15.54;43.54;100986.36;1881194;76;22695;-90
2021/04/01 13:07:30;;;;;;;21.00;12.80;;;;;;;15.50;44.37;100988.44;1838097;77;21171;-90
2021/04/01 13:12:46;;;;;;;28.57;14.60;;;;;;;15.62;43.48;100972.87;1888392;76;22199;-90
2021/04/01 13:15:19;;;;;;;15.75;11.00;;;;;;;15.65;43.92;100976.20;1859189;77;21160;-90
2021/04/01 13:17:48;;;;;;;18.82;11.05;;;;;;;15.71;43.08;100968.61;1858978;76;21419;-90
2021/04/01 13:20:22;;;;;;;12.53;8.60;;;;;;;15.72;42.99;100965.02;1872401;76;21583;-91
2021/04/01 13:23:08;;;;;;;13.65;8.23;;;;;;;15.73;41.63;100956.17;1786605;80;21206;-91
2021/04/01 13:25:26;;;;;;;9.85;7.95;;;;;;;15.75;40.52;100958.16;1795250;77;21157;-90
2021/04/01 13:28:00;;;;;;;12.28;8.65;;;;;;;15.74;38.85;100955.17;1770584;80;21182;-90
2021/04/01 13:30:31;;;;;;;15.50;9.33;;;;;;;15.75;39.28;100953.40;1796697;78;22305;-91
2021/04/01 13:38:13;;;;;;;11.30;8.48;;;;;;;15.78;39.59;100946.06;1815148;78;21163;-91
2021/04/01 13:40:43;;;;;;;11.95;8.40;;;;;;;15.76;39.47;100944.05;1819705;78;22234;-91
2021/04/01 13:43:16;;;;;;;13.28;8.80;;;;;;;15.75;39.55;100937.14;1803481;78;21352;-91
2021/04/01 13:45:50;;;;;;;20.88;9.45;;;;;;;15.74;39.11;100933.36;1790790;78;21193;-91
2021/04/01 13:48:23;;;;;;;14.85;8.28;;;;;;;15.72;39.53;100928.27;1799432;78;21169;-91
2021/04/01 13:51:03;;;;;;;11.65;7.85;;;;;;;15.71;39.54;100925.28;1797346;78;21188;-90
2021/04/01 13:56:19;;;;;;;60.80;28.32;;;;;;;15.73;41.00;100918.58;1813091;78;22280;-91
2021/04/01 13:59:15;;;;;;;42.08;23.40;;;;;;;15.71;40.87;100919.19;1812280;78;21172;-90
2021/04/01 14:09:58;;;;;;;15.58;10.80;;;;;;;15.64;43.12;100897.95;1798592;78;21424;-91
2021/04/01 14:12:27;;;;;;;;;;;;;;;15.63;43.42;100894.98;1822315;78;21260;-91
2021/04/01 14:14:56;;;;;;;19.75;11.85;;;;;;;15.60;43.54;100893.47;1821503;78;20314;-91
2021/04/01 14:17:26;;;;;;;16.82;11.63;;;;;;;15.57;43.54;100894.23;1821491;78;21172;-90
2021/04/01 14:19:57;;;;;;;17.45;11.70;;;;;;;15.52;43.23;100892.03;1818043;77;21572;-90
2021/04/01 14:22:27;;;;;;;15.50;10.28;;;;;;;15.51;43.91;100886.91;1810403;77;21393;-90
2021/04/01 14:25:03;;;;;;;15.15;10.43;;;;;;;15.50;43.85;100884.78;1791890;78;21145;-90
2021/04/01 14:28:01;;;;;;;17.85;10.65;;;;;;;15.50;43.82;100886.59;1788361;78;21207;-89
2021/04/01 14:30:26;;;;;;;21.07;13.18;;;;;;;15.48;43.52;100878.84;1770224;80;21150;-90
2021/04/01 14:32:54;;;;;;;26.12;13.65;;;;;;;15.51;43.97;100873.78;1824790;78;21151;-91
2021/04/01 14:35:51;;;;;;;23.55;13.45;;;;;;;15.54;44.03;100870.39;1789684;80;21198;-91
2021/04/01 14:38:22;;;;;;;17.67;11.70;;;;;;;15.60;43.45;100868.53;1801540;78;21145;-89
2021/04/01 14:40:57;;;;;;;14.75;10.38;;;;;;;15.64;43.20;100876.11;1808748;78;21212;-91
2021/04/01 14:43:40;;;;;;;27.30;13.32;;;;;;;15.61;42.68;100868.88;1809668;78;21184;-89
2021/04/01 14:46:35;;;;;;;28.20;15.25;;;;;;;15.60;43.11;100871.63;1789635;80;21544;-90
2021/04/01 14:49:05;;;;;;;20.75;13.10;;;;;;;15.58;43.32;100869.16;1759075;80;22344;-92
2021/04/01 14:51:34;;;;;;;17.52;12.30;;;;;;;15.57;43.05;100867.99;1790546;78;21117;-92
2021/04/01 14:54:09;;;;;;;19.87;12.78;;;;;;;15.53;43.29;100858.73;1809815;78;21172;-92
2021/04/01 14:56:49;;;;;;;22.93;12.75;;;;;;;15.46;43.17;100868.48;1789699;80;21176;-91
2021/04/01 14:59:22;;;;;;;21.97;12.07;;;;;;;15.39;43.09;100866.09;1789387;78;21124;-89
2021/04/01 15:01:52;;;;;;;20.08;11.68;;;;;;;15.33;43.50;100869.28;1783121;78;21365;-88
2021/04/01 15:04:21;;;;;;;21.85;11.25;;;;;;;15.27;43.85;100869.82;1834252;78;21172;-90
2021/04/01 15:06:52;;;;;;;25.52;11.88;;;;;;;15.23;44.19;100867.15;1833825;78;21148;-89
2021/04/01 15:09:22;;;;;;;19.13;10.90;;;;;;;15.20;44.59;100862.17;1819512;77;21176;-90
2021/04/01 15:11:53;;;;;;;20.77;11.30;;;;;;;15.17;44.80;100861.97;1806885;78;21220;-91
2021/04/01 15:14:23;;;;;;;21.48;13.45;;;;;;;15.15;44.18;100863.89;1821675;78;21325;-91
2021/04/01 15:16:51;;;;;;;20.95;11.78;;;;;;;15.13;44.54;100858.80;1821543;78;21227;-90
2021/04/01 15:19:23;;;;;;;20.15;10.30;;;;;;;15.11;44.84;100862.03;1821509;78;21069;-90
2021/04/01 15:21:56;;;;;;;22.02;9.73;;;;;;;15.11;45.79;100863.34;1789083;80;21430;-89
2021/04/01 15:24:56;;;;;;;22.85;11.10;;;;;;;15.09;46.58;100865.30;1789482;80;21164;-90
2021/04/01 15:27:26;;;;;;;16.17;9.75;;;;;;;15.05;46.31;100858.66;1747455;82;21367;-89
2021/04/01 15:29:58;;;;;;;16.30;9.28;;;;;;;14.99;45.88;100854.80;1792977;78;21241;-90
2021/04/01 15:32:55;;;;;;;16.97;9.78;;;;;;;14.94;47.09;100856.20;1788264;80;21188;-91
2021/04/01 15:35:24;;;;;;;25.00;10.25;;;;;;;14.89;46.84;100847.44;1792579;78;21128;-90
2021/04/01 15:37:52;;;;;;;68.70;11.63;;;;;;;14.78;46.09;100849.68;1763939;80;21128;-90
2021/04/01 15:40:54;;;;;;;62.58;11.12;;;;;;;14.68;49.22;100848.87;1808518;78;22172;-90
2021/04/01 15:43:23;;;;;;;17.42;9.35;;;;;;;14.58;50.31;100846.67;1804112;78;21164;-93
2021/04/01 15:45:54;;;;;;;21.68;9.65;;;;;;;14.43;50.33;100843.14;1821668;78;21198;-91
2021/04/01 15:48:25;;;;;;;17.98;9.88;;;;;;;14.30;50.88;100838.15;1787654;79;21170;-92
2021/04/01 15:50:56;;;;;;;24.10;9.95;;;;;;;14.18;50.02;100847.91;1785759;80;21171;-91
2021/04/01 15:53:24;;;;;;;31.45;10.38;;;;;;;14.06;51.31;100846.33;1789405;80;22346;-92
2021/04/01 15:55:56;;;;;;;54.03;20.08;;;;;;;13.95;51.97;100845.14;1803787;78;21196;-91
2021/04/01 15:58:27;;;;;;;28.73;13.90;;;;;;;13.85;54.99;100846.41;1818319;78;21120;-91
2021/04/01 16:00:56;;;;;;;44.80;13.08;;;;;;;13.75;53.98;100845.53;1780789;80;21152;-91
2021/04/01 16:03:41;;;;;;;14.85;9.43;;;;;;;13.66;55.31;100843.23;1841287;77;22814;-91
2021/04/01 16:06:10;;;;;;;16.67;10.13;;;;;;;13.49;54.02;100844.63;1839833;77;21191;-91
2021/04/01 16:08:41;;;;;;;31.55;10.55;;;;;;;13.31;54.18;100848.28;1828561;77;21120;-91
2021/04/01 16:11:09;;;;;;;25.75;10.50;;;;;;;13.15;54.48;100839.09;1830291;77;21207;-91
2021/04/01 16:13:39;;;;;;;24.52;11.53;;;;;;;13.01;55.05;100840.71;1798850;78;21136;-91
2021/04/01 16:16:10;;;;;;;39.08;11.63;;;;;;;12.84;55.80;100837.69;1830437;78;21137;-91
2021/04/01 16:18:39;;;;;;;15.32;8.83;;;;;;;12.70;57.11;100838.80;1823228;77;21163;-91
2021/04/01 16:21:35;;;;;;;20.62;9.98;;;;;;;12.56;57.16;100837.28;1816448;79;22058;-91
2021/04/01 16:24:04;;;;;;;16.15;9.90;;;;;;;12.42;57.31;100837.08;1823121;77;21068;-90
2021/04/01 16:26:32;;;;;;;33.02;11.53;;;;;;;12.29;61.44;100837.25;1816576;79;21167;-91
2021/04/01 16:29:01;;;;;;;16.57;9.48;;;;;;;12.20;68.16;100834.50;1816449;78;21158;-91
2021/04/01 16:31:31;;;;;;;16.55;9.90;;;;;;;12.13;63.35;100834.17;1816363;77;21133;-91
2021/04/01 16:34:01;;;;;;;21.95;10.63;;;;;;;12.04;61.38;100830.98;1819790;77;22364;-89
2021/04/01 16:36:33;;;;;;;19.27;9.88;;;;;;;11.92;61.33;100834.85;1819937;77;21184;-91
2021/04/01 16:39:03;;;;;;;16.55;9.95;;;;;;;11.81;63.92;100835.68;1845372;77;21107;-91
2021/04/01 16:41:34;;;;;;;18.60;10.20;;;;;;;11.73;65.15;100834.63;1815415;78;21642;-90
2021/04/01 16:44:10;;;;;;;24.70;10.07;;;;;;;11.63;66.57;100835.32;1718201;82;21207;-91
2021/04/01 16:46:41;;;;;;;21.60;10.10;;;;;;;11.58;67.61;100836.61;1780445;78;21330;-90
2021/04/01 16:49:10;;;;;;;14.90;9.53;;;;;;;11.52;72.04;100839.20;1784638;78;21583;-91
2021/04/01 16:54:56;;;;;;;16.48;9.83;;;;;;;11.45;67.41;100838.01;1872656;76;22828;-89
2021/04/01 16:57:24;;;;;;;16.52;10.60;;;;;;;11.33;66.01;100835.85;1840719;77;21181;-89
2021/04/01 16:59:57;;;;;;;13.78;9.90;;;;;;;11.26;64.88;100836.77;1840656;77;21344;-90
2021/04/01 17:02:26;;;;;;;15.20;10.00;;;;;;;11.18;64.48;100841.72;1840588;78;21055;-90
2021/04/01 17:04:54;;;;;;;17.27;9.98;;;;;;;11.10;64.41;100845.36;1840727;78;21149;-90
2021/04/01 17:07:23;;;;;;;29.10;10.20;;;;;;;10.99;64.12;100845.70;1808018;78;21157;-90
2021/04/01 17:09:52;;;;;;;17.25;9.88;;;;;;;10.93;67.54;100846.61;1811319;78;21138;-91
2021/04/01 17:12:27;;;;;;;20.32;11.12;;;;;;;10.91;81.54;100848.49;1778765;79;21236;-91
2021/04/01 17:14:57;;;;;;;15.90;10.25;;;;;;;10.91;88.38;100843.28;1807727;79;21153;-91
2021/04/01 17:17:26;;;;;;;16.90;10.45;;;;;;;10.90;83.98;100842.46;1784480;78;21134;-91
2021/04/01 17:23:23;;;;;;;37.08;11.30;;;;;;;10.87;80.83;100837.47;1814862;78;21173;-92
2021/04/01 17:25:53;;;;;;;29.42;11.08;;;;;;;10.84;80.96;100835.92;1820329;76;21530;-92
2021/04/01 17:28:21;;;;;;;18.80;10.08;;;;;;;10.80;74.38;100829.28;1822887;78;21129;-92
2021/04/01 17:30:53;;;;;;;22.85;11.03;;;;;;;10.77;76.72;100832.10;1841088;77;21109;-93
2021/04/01 17:33:35;;;;;;;15.45;10.78;;;;;;;10.71;72.49;100832.07;1837286;78;21123;-93
2021/04/01 17:36:37;;;;;;;16.87;11.53;;;;;;;10.66;73.61;100828.12;1831925;76;21044;-93
2021/04/01 17:39:09;;;;;;;15.72;11.28;;;;;;;10.62;78.91;100831.42;1804217;78;21723;-93
2021/04/01 17:42:09;;;;;;;21.77;12.68;;;;;;;10.59;80.82;100827.76;1814032;78;21634;-93
2021/04/01 17:52:07;;;;;;;24.82;15.85;;;;;;;10.54;81.59;100824.63;1807925;79;21137;-91
2021/04/01 17:55:06;;;;;;;24.00;17.70;;;;;;;10.54;83.50;100825.48;1793446;79;21460;-91
2021/04/01 17:57:38;;;;;;;36.23;25.05;;;;;;;10.55;84.55;100816.73;1732779;81;21155;-91
2021/04/01 18:00:14;;;;;;;46.77;27.73;;;;;;;10.58;84.73;100816.98;1750588;81;21171;-91
2021/04/01 18:02:47;;;;;;;37.88;25.68;;;;;;;10.63;83.79;100821.38;1750756;81;21072;-92
2021/04/01 18:31:11;;;;;;;44.67;27.98;;;;;;;10.57;85.88;100808.34;1841627;78;22471;-92
2021/04/01 18:43:05;;;;;;;54.83;32.38;;;;;;;9.99;81.07;100805.45;1744273;80;21183;-93
2021/04/01 18:48:40;;;;;;;37.60;24.55;;;;;;;9.61;84.99;100802.42;1767666;80;21246;-93
2021/04/01 18:51:10;;;;;;;38.02;23.18;;;;;;;9.39;79.45;100803.03;1745526;81;22132;-93
2021/04/01 18:53:44;;;;;;;44.20;25.48;;;;;;;9.14;85.59;100802.92;1715925;83;21137;-92
2021/04/01 18:56:51;;;;;;;41.80;23.73;;;;;;;8.90;85.88;100801.92;1751606;79;21412;-92
2021/04/01 19:02:40;;;;;;;42.98;21.52;;;;;;;8.73;86.64;100797.36;1782240;79;21150;-93
2021/04/01 19:05:35;;;;;;;40.35;23.90;;;;;;;8.60;90.69;100792.12;1755794;80;21364;-92
2021/04/01 19:07:44;;;;;;;35.78;22.07;;;;;;;8.48;91.06;100793.73;1752798;80;21131;-93
2021/04/01 19:22:21;;;;;;;;;;;;;;;7.70;99.76;100785.12;1728648;83;21220;-92
2021/04/01 19:24:52;;;;;;;42.00;23.92;;;;;;;7.62;100.00;100786.86;1729192;81;20221;-92
2021/04/01 19:27:27;;;;;;;48.13;25.48;;;;;;;7.53;99.83;100775.30;1745747;81;21543;-92
2021/04/01 19:29:58;;;;;;;47.00;24.37;;;;;;;7.47;100.00;100778.27;1742466;81;21215;-92
2021/04/01 19:32:29;;;;;;;49.55;24.07;;;;;;;7.41;100.00;100782.52;1694068;83;21384;-92
2021/04/01 19:34:59;;;;;;;46.10;24.75;;;;;;;7.35;100.00;100775.09;1726367;82;21560;-92
2021/04/01 19:37:29;;;;;;;41.00;23.02;;;;;;;7.30;100.00;100775.35;1726474;83;21545;-92
2021/04/01 19:39:59;;;;;;;50.67;25.52;;;;;;;7.23;100.00;100772.31;1692920;83;21130;-92
2021/04/01 19:42:31;;;;;;;58.05;25.43;;;;;;;7.18;100.00;100773.50;1725950;83;21186;-92
2021/04/01 19:45:09;;;;;;;45.52;25.48;;;;;;;7.10;100.00;100770.05;1716000;83;21863;-92
2021/04/01 19:47:42;;;;;;;40.28;24.52;;;;;;;7.03;100.00;100761.82;1696647;84;21186;-91
2021/04/01 19:50:16;;;;;;;45.10;25.40;;;;;;;7.00;100.00;100759.39;1696766;84;21083;-92
2021/04/01 19:52:48;;;;;;;39.42;24.37;;;;;;;6.94;100.00;100756.69;1710888;82;21208;-92
2021/04/01 19:55:52;;;;;;;40.33;23.92;;;;;;;6.87;100.00;100757.97;1726423;83;21584;-92
2021/04/01 19:58:22;;;;;;;34.20;21.75;;;;;;;6.81;100.00;100752.33;1729074;83;21192;-92
2021/04/01 20:00:51;;;;;;;35.55;22.00;;;;;;;6.80;100.00;100751.48;1697074;83;21124;-92
2021/04/01 20:03:20;;;;;;;36.45;20.75;;;;;;;6.86;100.00;100749.83;1740539;81;21136;-92
2021/04/01 20:09:13;;;;;;;39.05;22.65;;;;;;;6.81;100.00;100749.74;1750060;79;21237;-91
2021/04/01 20:11:43;;;;;;;40.50;25.17;;;;;;;6.67;100.00;100744.05;1789174;79;21364;-91
2021/04/01 20:14:20;;;;;;;44.93;26.00;;;;;;;6.58;100.00;100751.84;1749582;79;21181;-91
2021/04/01 20:16:52;;;;;;;50.58;28.83;;;;;;;6.47;100.00;100744.69;1746788;82;21141;-92
2021/04/01 20:19:22;;;;;;;38.70;25.00;;;;;;;6.38;100.00;100747.79;1746880;82;21137;-92
2021/04/01 20:22:19;;;;;;;47.83;27.85;;;;;;;6.36;100.00;100744.00;1759500;79;21183;-92
2021/04/01 20:24:52;;;;;;;49.55;28.12;;;;;;;6.41;100.00;100744.57;1803591;79;21380;-92
2021/04/01 20:27:21;;;;;;;50.43;30.12;;;;;;;6.43;100.00;100739.33;1787720;79;21184;-92
2021/04/01 20:30:19;;;;;;;53.42;31.17;;;;;;;6.39;100.00;100734.80;1774899;80;21140;-92
2021/04/01 20:32:49;;;;;;;50.98;29.15;;;;;;;6.34;100.00;100738.08;1781266;79;21115;-91
2021/04/01 20:35:46;;;;;;;53.83;30.07;;;;;;;6.28;100.00;100736.69;1805326;79;21128;-92
2021/04/01 20:38:14;;;;;;;51.85;28.00;;;;;;;6.27;100.00;100734.16;1805042;79;21183;-91
2021/04/01 20:40:43;;;;;;;48.35;28.70;;;;;;;6.29;100.00;100734.92;1797342;79;21199;-92
2021/04/01 20:43:20;;;;;;;46.48;28.77;;;;;;;6.27;100.00;100732.42;1787353;79;21149;-91
2021/04/01 20:46:19;;;;;;;50.63;30.57;;;;;;;6.31;100.00;100729.20;1768064;79;21085;-92
2021/04/01 20:48:47;;;;;;;49.80;30.50;;;;;;;6.34;100.00;100720.44;1784550;79;21584;-92
2021/04/01 20:51:46;;;;;;;45.70;28.87;;;;;;;6.30;100.00;100719.31;1777376;79;21445;-92
2021/04/01 20:58:33;;;;;;;51.90;28.45;;;;;;;6.35;100.00;100714.35;1790245;79;21171;-91
2021/04/01 21:01:02;;;;;;;47.38;27.85;;;;;;;6.47;100.00;100704.16;1777371;79;21157;-92
2021/04/01 21:03:31;;;;;;;52.43;29.12;;;;;;;6.53;100.00;100699.07;1785013;79;21116;-92
2021/04/01 21:06:10;;;;;;;58.90;34.08;;;;;;;6.54;100.00;100696.86;1774165;79;21521;-91
2021/04/01 21:09:09;;;;;;;70.32;35.45;;;;;;;6.59;100.00;100690.98;1778661;79;21120;-91